Show PROVEsports Forecasts Completed Series
TimeEventRatingTeamW%W%TeamRating
Jul 16, 2018
20:15ESL Meistersch1106ALTERNATE aTTaX671 — 133BLUEJAYS989
20:002018 LGC Seaso935Gamespace eSports461 — 054Panathinaikos AC962
20:00Esports Balkan991ASUS ROG ELITE590 — 141WiLD MultiGaming927
20:00Overwatch Cont1124British Hurricane711 — 3296nakes994
19:30ESL Meistersch1122Sprout872 — 013Playing Ducks834
19:302018 SuperLiga1107Vodafone Giants.Spain761 — 124Dragons E.C.902
18:002018 LGC Seaso939Dawn of Stars411 — 059LUL Esports1002
18:00Overwatch Cont985Orgless and Hungry563 — 144Bazooka Puppiez950
18:00PG Nationals P857inFerno eSports90 — 291Team Forge1139
18:00TCL Summer 201895Dark Passage160 — 184SuperMassive eSports1177
18:0099Liga Season 830Planetkey Dynamics302 — 070Private Esports959
17:30ESL Meistersch923Entropy Gaming360 — 264FriendlyFire1008
17:30ESL Meistersch1033Euronics Gaming612 — 039PANTHERS942
17:30ESL Meistersch859DIVIZON421 — 158Berzerk918
17:302018 SuperLiga1028KIYF eSports Club302 — 070MAD Lions1173
17:002018 LGC Seaso912Team Refuse.380 — 162OutLawz995
17:00ESEA Season 281181Team Kinguin741 — 026Chaos.1026
17:00TCL Summer 2011091Royal Bandits641 — 036Bursaspor Esports994
17:00QIWI TEAM PLAY1020GoodJob342 — 166forZe1081
17:0099Liga Season 1112ALTERNATE aTTaX682 — 032BLUEJAYS984
16:00PG Nationals P1009Outplayed WAR682 — 132Racoon912
16:00ESEA Season 281002PAPERPLANES381 — 062Chaos.1054
16:00TCL Summer 201927Team AURORA LoL340 — 166HWA Gaming1044
16:00Overwatch Cont1241Angry Titans903 — 110Young and Beautiful941
16:00ESEA Season 281092Epsilon781 — 022Vexed Gaming894
15:00TCL Summer 20110241907 Fenerbahe600 — 140YouthCrew Esports954
15:00Prodota Cup EU939Marlerino eSports552 — 045Digital Company912
15:00Dota 2 Summer 1006slozhniy memas530 — 247LeftOne992
14:30Asia Minor Cha1127Renegades652 — 035B.O.O.T-dream[S]cape1048
14:00ESEA Season 281143Team Spirit570 — 143Sprout1104
13:30Gold Series He1010Beyond The Game742 — 026KT830
13:00Overwatch Cont1080Lucky Future393 — 161Team CC1138
12:30Gold Series He1079Chall Enge410 — 259TheOne1144
11:00Asia Minor Cha1048B.O.O.T-dream[S]cape722 — 128VG.FlashGaming955
11:002018 LoL Pro L1081Bilibili Gaming641 — 236Snake1007
11:00Gold Series He1083Super Perfect Team812 — 019Team Nut827
11:002018 Challenge765REVERSE Gaming172 — 183Team BattleComics960
10:30ESEA Season 28974Legacy eSports651 — 035corvidae864
09:45ANGGAME China 972Source Code611 — 039Alpha Red897
09:45Gold Series He851RPG621 — 138A-Team768
09:30Asia Minor Cha1154Renegades860 — 114SZ Absolute872
09:00Overwatch Cont1149LGD Gaming633 — 137Moss Seven Club1063
09:002018 LoL Pro L943LGD LoL422 — 158Topsports Gaming976
08:30ANGGAME China 1015Taichi Gaming401 — 060Geek Fam1086
08:15Asia Minor Cha1137Renegades591 — 041B.O.O.T-dream[S]cape1065
08:15Gold Series He1065Chall Enge782 — 022KT843
08:002018 Challenge900ES Sharks431 — 257Winners938
07:30ANGGAME China 972Aurora Esports Club280 — 172TnC Tiger1128
07:00Asia Minor Cha978VG.FlashGaming650 — 135SZ Absolute849
07:00Gold Series He833RPG251 — 175Beyond The Game1029
04:30Overwatch Cont991Legacy Esports411 — 359Blank Blue1042
03:00Overwatch Cont818Dignity744 — 026Bin Chickens664
02:00Overwatch Cont895Tainted Minds90 — 491Sydney Drop Bears1208
Jul 15, 2018
23:002018 NA LCS Su1051Clutch Gaming631 — 037OpTic Gaming LoL933
23:002018 Heroes of1101Team Octalysis642 — 336Endemic Esports1028
22:30Tokyo in Tulsa928Team BlackOut471 — 253Vision CS960
22:002018 NA LCS Su1094Counter Logic Gaming LoL561 — 044Cloud 91075
21:002018 Heroes of1187Tempo Storm653 — 035Team Freedom1104
20:452018 NA LCS Su1030Echo Fox351 — 065Team Solomid1117
20:15Tokyo in Tulsa860AZIO Esports410 — 259Team BlackOut904
19:30Overwatch Cont1019Caverna e-Sports620 — 438Breakdown Gaming946
19:002018 NA LCS Su1047FlyQuest eSports301 — 070Team Liquid LoL1195
19:002018 NA LCS Su1107100 Thieves LoL640 — 136Golden Guardians981
19:00Overwatch Cont1269Brasil Gaming House924 — 08RevoltZ e-Sports Club946
19:00ESEA Season 281212Red Reserve610 — 1393DMAX.CS1073
18:0099Liga Season 890Galaxy Network572 — 043WiseWizards830
18:002018 Heroes of1087Zealots180 — 382Method HotS1276
17:00Cross Border E856SinnerS151 — 285Nexus Gaming1036
17:00ESEA Season 281095Sprout571 — 043Euronics Gaming1041
17:00Rivalry CIS In934DreamEaters310 — 269k1ck eSports Club1040
16:15TCL Summer 20110141907 Fenerbahe611 — 039Team AURORA LoL937
16:002018 Heroes of1488Dignitas903 — 010Team Liquid1215
15:00ESEA Season 281079Sprout571 — 043Tricked Esport1040
15:00TCL Summer 2011085Royal Bandits741 — 026Dark Passage899
15:00Dota 2 Summer 865Helsinki REDS230 — 277Akatsuki Clan1025
14:00Thunderpick In1072AVANGAR482 — 052Euronics Gaming1084
14:00TCL Summer 2011196SuperMassive eSports730 — 127HWA Gaming1025
13:00Overwatch Cont1333Lucky Future Zenith944 — 06Lingan e-Sports971
13:00TCL Summer 2011011Bursaspor Esports640 — 136YouthCrew Esports937
11:452018 League Ch1110Gen.G352 — 165Hanwha Life Esports1184
11:15Overwatch Cont1058T1w834 — 017Future Group847
11:152018 LoL Pro L1201Edward Gaming261 — 274Royal Never Give Up1324
11:00Cross Border E1027Nexus Gaming642 — 036Jail On Shooting964
11:002018 Heroes of926Team Feliz360 — 364Miracle1003
10:452018 LMS Summe1002G-Rex521 — 248J Team990
10:00Globe Conquero960The Natives500 — 250Till Dawn958
10:002018 VCS Summe1080GIGABYTE Marines480 — 252EVOS Esports1090
09:30ANGGAME China 1008TaskUs Titans660 — 134Team AGV890
09:302018 LoL Pro L979Oh My God LoL522 — 148Vici Gaming LoL968
09:00Overwatch Cont790Hero Taciturn Panther224 — 078LaoYinBi975
08:15ANGGAME China 1070Geek Fam351 — 065Clutch Gamers1180
08:002018 League Ch1201Afreeca Freecs431 — 257KT Rolster1231
08:002018 LMS Summe1007MAD Team632 — 037Team Afro937
07:302018 LoL Pro L1145JD Gaming702 — 130Team WE1036
07:00Globe Conquero953The Natives592 — 141Underdog904
07:002018 VCS Summe904FTV Esports322 — 168FFQTV Gaming998
07:00ANGGAME China 965HighGround290 — 171TnC Tiger1121
07:00Overwatch Cont1134Meta Bellum563 — 144BlossoM1087
06:00ANGGAME China 876Alpha Red171 — 083Execration1147
05:00Globe Conquero1005Bigetron E-Sports493 — 051Headhunters1008
05:00Overwatch Cont977MVP Space242 — 376Seven1142
01:152018 LLN Closi9726Sense440 — 156Infinity eSports1015
01:002018 NA LCS Su1059FlyQuest eSports460 — 154Cloud 91063
00:002018 NA LCS Su937OpTic Gaming LoL170 — 183Team Liquid LoL1190
00:002018 LLN Closi1105Rainbow7591 — 041Pixel eSports Club1045
Jul 14, 2018
23:152018 Heroes of1249HeroesHearth973 — 03No Tomorrow850
23:002018 LLN Closi957Dash9 Gaming510 — 149Gaming Gaming952
22:452018 NA LCS Su963Golden Guardians321 — 068Clutch Gaming1068
22:002018 NA LCS Su1094100 Thieves LoL481 — 052Team Solomid1130
22:002018 LLN Closi864Zaga Talent Gaming330 — 167Predators eSports989
21:45Overwatch Leag1265London Spitfire443 — 056Los Angeles Gladiators1279
21:30Games Clash Ma944Codewise Unicorns501 — 150EVOLVE by ITHardware.pl948
21:002018 NA LCS Su1081Counter Logic Gaming LoL521 — 048Echo Fox1043
21:002018 Heroes of966Simplicity310 — 369Team Octalysis1071
20:00Overwatch Leag1199London Spitfire253 — 075Los Angeles Gladiators1356
20:002018 CLS Closi829Hafnet E-Sports180 — 182KaosLatin Gamers LoL1093
19:002018 CLS Closi964Isurus Gaming LoL601 — 040Evilvice Esports895
18:452018 EU LCS Su1127Misfits621 — 038Team Vitality1069
18:002018 CLS Closi836Dark Horse450 — 155Legatum874
18:002018 EU LCS Su980Team ROCCAT220 — 178Fnatic LoL1174
18:002018 Heroes of1072Leftovers323 — 268Fnatic1169
17:30Games Clash Ma974Codewise Unicorns400 — 260x-kom Team1045
17:002018 CLS Closi920Furious Gaming410 — 159Rebirth eSports987
17:002018 EU LCS Su1169G2 EsportsLoL840 — 116Vodafone Giants.Spain903
16:002018 EU LCS Su988FC Schalke 04 Esports411 — 059Splyce - LoL1076
16:00TCL Summer 20110281907 Fenerbahe550 — 145Bursaspor Esports997
16:00TCL Summer 201942Team AURORA LoL190 — 181SuperMassive eSports1191
16:00ESL Masters Es995Dragons Esports Club571 — 243KPI Gaming949
16:002018 Heroes of1105Monkey Menagerie250 — 375Method HotS1250
15:00Prodota Cup EU963Team Moriarty RO490 — 251slozhniy memas966
15:002018 EU LCS Su953H2K Gaming420 — 158Unicorns of Love986
14:15DreamHack Open1211North742 — 026Luminosity Gaming1089
14:00TCL Summer 201925YouthCrew Esports521 — 048Dark Passage912
14:00TCL Summer 2011008HWA Gaming371 — 063Royal Bandits1101
13:00joinDOTA Leagu1183Clutch Gamers551 — 145TnC Tiger1148
13:00ESL Masters Es920KPI Gaming492 — 051MAD Lions932
13:00Overwatch Cont890Machi Esports303 — 170MEGA Esports1013
12:15ANGGAME China 860Alpha Red331 — 067HighGround981
11:002018 League Ch989MVP LoL592 — 141bbq OLIVERS944
11:002018 LMS Summe953Machi E-Sports372 — 163HK Attitude1024
11:002018 LoL Pro L1197Rogue Warriors692 — 131Suning Gaming1093
11:00ANGGAME China 1103TnC Tiger371 — 063Clutch Gamers1198
11:002018 Heroes of1266Ballistix993 — 01Good Luck810
11:002018 LJL Summe1117DetonatioN FocusMe772 — 023Burning Core965
10:15DreamHack Open1110Heroic541 — 246Luminosity Gaming1089
10:002018 VCS Summe1063Phong V Buffalo832 — 017Vikings Gaming863
10:002018 Oceanic P966Legacy Esports640 — 236AvantGarde891
09:45ANGGAME China 897Team AGV280 — 172Geek Fam1063
09:00ESL Masters Es1055Giants Gaming691 — 231Dragons Esports Club951
09:002018 LoL Pro L1027FunPlus Phoenix110 — 289Invictus Gaming LoL1288
09:00Overwatch Cont917XAVIER E-Sports201 — 380CYCLOPS athlete gaming1118
09:002018 Heroes of1201BlossoM240 — 376Tempest1350
08:30ANGGAME China 990TaskUs Titans271 — 073Execration1165
08:002018 League Ch984Jin Air Greenwings92 — 191Kingzone DragonX1254
08:00DreamHack Open1050Fragsters250 — 275North1194
08:002018 LMS Summe1018ahq e-Sports Club560 — 244MAD Team981
08:002018 LJL Summe935Unsold Stuff Gaming570 — 243V3 Esports892
07:15Globe Conquero893MEGA302 — 070The Natives985
07:15Globe Conquero1029Ascension Gaming562 — 044Till Dawn980
07:15ANGGAME China 1053Geek Fam591 — 041TaskUs Titans1000
07:00Globe Conquero945Sovereign612 — 039Impunity888
07:002018 VCS Summe894Cherry Gaming480 — 252Cube Adonis913
07:002018 Oceanic P928Tectonic570 — 243Mammoth Esports893
06:45Overwatch Cont1088O2 Ardeont270 — 473Element Mystic1232
06:002018 LoL Pro L985Snake572 — 043LGD LoL959
06:00ANGGAME China 1097TnC Tiger741 — 026Team AGV903
05:00Globe Conquero981Bigetron E-Sports512 — 049Team nxl974
05:00Gfinity Elite 1101ORDER833 — 017Chiefs eSports Club949
05:00Overwatch Cont1260X6-Gaming550 — 445RunAway1227
02:00Overwatch Leag1252Philadelphia Fusion423 — 158Boston Uprising1302
01:002018 NA Academ837Golden Guardians Academy341 — 066Echo Fox Academy951
00:302018 Heroes of1175Tempo Storm943 — 06LFM eSports847
00:152018 NA Academ929100 Academy531 — 047Team Solomid Academy905
00:00Overwatch Leag1249Philadelphia Fusion471 — 353Boston Uprising1275
Jul 13, 2018
22:452018 NA Academ1079Cloud9 Academy721 — 028Clutch Academy917
22:002018 NA Academ964OpTic Academy530 — 147Flyquest Academy942
21:302018 Heroes of1033Endemic Esports382 — 362Team Freedom1099
20:002018 EU LCS Su1184G2 EsportsLoL570 — 143Misfits1113
19:30Games Clash Ma1176Team Kinguin692 — 031x-kom Team1051
19:002018 EU LCS Su1191Fnatic LoL650 — 135Splyce - LoL1059
19:0099Liga Season 867Entropy Gaming392 — 061SFTO eSports961
19:002018 Heroes of1483Dignitas993 — 01Granit Gaming1013
18:30Dota 2 Summer 886Digital Company412 — 059Question Mark-934
18:002018 EU LCS Su999Unicorns of Love510 — 149Team ROCCAT966
17:45Games Clash Ma979Codewise Unicorns210 — 279Team Kinguin1171
17:45ESL Masters Es889x6tence471 — 253MAD Lions907
17:002018 EU LCS Su976FC Schalke 04 Esports551 — 045Vodafone Giants.Spain915
17:0099Liga Season 1082Euronics Gaming772 — 023Berzerk897
16:30DreamHack Open1069Luminosity Gaming312 — 169G2 Esports1160
16:002018 EU LCS Su1058Team Vitality601 — 040H2K Gaming964
16:002018 Heroes of1071Zealots222 — 378Team Liquid1231
15:15ESL Masters Es925Dragons Esports Club532 — 047x6tence916
15:00Stream.me Gaun915Ancient440 — 256Team Endpoint929
15:00Dota 2 Summer 986slozhniy memas531 — 247Backpacks972
15:00ESEA Season 281198Red Reserve761 — 024Movistar Riders1000
14:15CIS Minor Cham1267HellRaisers752 — 125Team Spirit1113
13:00QIWI TEAM PLAY1082forZe752 — 125SKITLITE964
12:45DreamHack Open1209North652 — 135AGO Gaming1098
12:15ANGGAME China 840Alpha Red211 — 079Geek Fam1072
12:002018 VCS Summe878Vikings Gaming170 — 283EVOS Esports1078
11:30CIS Minor Cham1050PRO100440 — 256Team Spirit1091
11:00ESL Masters Es763Movistar Riders Blue250 — 275MAD Lions893
11:002018 LoL Pro L1348Royal Never Give Up962 — 04Oh My God LoL985
11:002018 LMS Summe1002HK Attitude582 — 042Team Afro962
11:002018 League Ch1117SK Telecom T1391 — 261Hanwha Life Esports1175
11:00DreamHack Open1138G2 Esports732 — 027Virtus.Pro997
11:00ANGGAME China 988HighGround270 — 173Execration1158
11:002018 Heroes of1551Gen.G esports1003 — 00Team Feliz929
11:002018 LJL Summe1006Pentagram752 — 025Crest Gaming868
10:45ESL Masters Es913MAD Lions470 — 153x6tence896
10:30Globe Conquero963The Natives562 — 044Aqua Force932
09:45ANGGAME China 1194Clutch Gamers761 — 024HighGround995
09:30Globe Conquero958Till Dawn562 — 044Underdog926
09:152018 Oceanic P1108Chiefs eSports Club LoL530 — 247Dire Wolves LoL1103
09:002018 VCS Summe1048Phong V Buffalo752 — 025Cherry Gaming918
09:002018 LoL Pro L1080Bilibili Gaming702 — 130Topsports Gaming966
09:00Overwatch Cont1086Blank Esports674 — 033Incipience977
09:002018 Heroes of1338Tempest943 — 06Miracle1016
08:30ESL Masters Es932Dragons Esports Club751 — 025Movistar Riders Blue753
08:30ANGGAME China 840Alpha Red411 — 059Team AGV903
08:15CIS Minor Cham1061Team Spirit422 — 158AVANGAR1102
08:00DreamHack Open1085Giants Gaming540 — 246AGO Gaming1068
08:002018 LMS Summe1011G-Rex100 — 290Flash Wolves1286
08:002018 League Ch1205Griffin662 — 134Gen.G1118
08:002018 Challenge773REVERSE Gaming90 — 291DAMWON Gaming1054
07:15ANGGAME China 1009TaskUs Titans380 — 162TnC Tiger1087
07:002018 Elite Cha94917 Academy512 — 049J Team II944
07:002018 Oceanic P875Bombers280 — 272ORDER996
06:00ANGGAME China 1175Execration680 — 132Geek Fam1056
05:002018 Challenge895GC Busan Rising Star441 — 256KongDoo Monster927
03:00ESEA Season 28820FAM143350 — 165Vireo.pro949
02:452018 NA Academ846Golden Guardians Academy350 — 165OpTic Academy955
02:30Overwatch Cont893Bye Week140 — 486NRG eSports1150
02:00ESEA Season 28968RESOLUTE620 — 138Monstars900
02:00ESEA Season 281016Gorilla Gang761 — 024Will to Win848
01:452018 NA Academ901Clutch Academy411 — 059Echo Fox Academy966
01:00ESEA Season 28975RESOLUTE460 — 154Gorilla Gang1009
01:00ESEA Season 28768Team Prospects300 — 170Mythic898
01:00Overwatch Cont1150XL2 Academy573 — 143Team Envy1106
00:452018 NA Academ912100 Academy341 — 066Team Liquid Academy1024
00:002018 NA Academ957Flyquest Academy460 — 154Counter Logic Gaming Academy985
Jul 12, 2018
23:002018 NA Academ1072Cloud9 Academy711 — 029Team Solomid Academy913
23:00Overwatch Cont1062Skyfoxes252 — 375Toronto Esports1220
20:00Overwatch Cont1040paiN Gaming624 — 038Hephaestus Esports968
19:4599Liga Season 1077ALTERNATE aTTaX762 — 024DIVIZON894
19:00ESEA Season 28991SuperJymy411 — 059FriendlyFire1034
18:00Esport Balkan 987Crvena zvezda621 — 038Rift Esports900
18:00ESEA Season 281066Euronics Gaming431 — 057ALTERNATE aTTaX1093
18:00Overwatch Cont978Black Dragons e-Sports443 — 1562Kill Gaming1016
17:30DreamHack Open1094Luminosity Gaming640 — 136Fragsters1025